Archival Weather

Pemba

Pemba, Mozambique (FQPB)

Report from: Saturday, April 1, 2023 2:00 PM CAT
Current time: Wednesday, April 24, 2024 8:10 PM CAT

Current weather – Weather history – Daily summaries
Weather forecast

Temperature31.0°C (87.8°F)
Heat index36.6°C (97.8°F)
Dew point24.0°C (75.2°F)
Winds 12 kts (6.2 m/s, 13.8 mph) Vrb
Winds variableWinds variable from Southeast (130°) to South (190°)
Visibility6.2 mi. (10 km)
Clouds Ceiling: Broken clouds 0 ft. (0 m)
Scattered clouds 2,000 ft. (610 m)
Few clouds with cumulonimbus 2,500 ft. (762 m)
Altimeter29.85 in.Hg (1011 mB)
Relative humidity66 %
Density altitude2,305 ft. (702 m)
Remarks Cumulonimbus clouds observed
Flight conditions Low Instrument Meteorological Conditions
Raw dataFQPB 011200Z 15012KT 130V190 9999 SCT020 FEW025CB BKN/// 31/24 Q1011 RMK CB TO NE/NW/N
An error has occurred. This application may no longer respond until reloaded. Reload 🗙